Martin, Georgia
Current Conditions -  °F | °C
As of 5:15 AM on Tuesday 27 Jan 2015 (Local Time) from KTOC Reporting Station
Overcast Overcast  
Wind Chill: 33°   Ceiling: 6500
Heat Index: 37°   Visibility: 10mi
Dew Point: 26°   Wind: 5mph
Humidity: 65%   Direction: 310°NW
Pressure: 29.8"   Gusts: NA
Location:  34.49°N, 83.18°W
Report Text: KTOC 271015Z AUTO 31004KT 10SM OVC065 03/M03 A2980 RMK AO2 T00281031
Loading
Personal Weather Stations






























Interactive Weather Map New forecast layout! Learn more

10-Day Weather Forecast

Advertisements
Track Severe Weather on mobile